sensor_id;sensor_type;location;lat;lon;timestamp;temperature;humidity
78694;SHT31;68029;51.978;5.646;2023-04-08T00:01:13;11.6;72.4
78694;SHT31;68029;51.978;5.646;2023-04-08T00:03:42;11.5;72.6
78694;SHT31;68029;51.978;5.646;2023-04-08T00:06:12;11.5;72.7
78694;SHT31;68029;51.978;5.646;2023-04-08T00:08:42;11.5;72.6
78694;SHT31;68029;51.978;5.646;2023-04-08T00:11:12;11.5;73.1
78694;SHT31;68029;51.978;5.646;2023-04-08T00:13:42;11.5;72.7
78694;SHT31;68029;51.978;5.646;2023-04-08T00:16:13;11.5;72.7
78694;SHT31;68029;51.978;5.646;2023-04-08T00:18:43;11.5;72.7
78694;SHT31;68029;51.978;5.646;2023-04-08T00:21:12;11.5;72.5
78694;SHT31;68029;51.978;5.646;2023-04-08T00:23:44;11.5;72.2
78694;SHT31;68029;51.978;5.646;2023-04-08T00:26:13;11.5;72.1
78694;SHT31;68029;51.978;5.646;2023-04-08T00:28:43;11.4;71.8
78694;SHT31;68029;51.978;5.646;2023-04-08T00:31:13;11.4;72.4
78694;SHT31;68029;51.978;5.646;2023-04-08T00:33:42;11.3;72.5
78694;SHT31;68029;51.978;5.646;2023-04-08T00:36:12;11.3;72.7
78694;SHT31;68029;51.978;5.646;2023-04-08T00:38:44;11.3;72.4
78694;SHT31;68029;51.978;5.646;2023-04-08T00:41:14;11.3;72.3
78694;SHT31;68029;51.978;5.646;2023-04-08T00:43:45;11.3;72.6
78694;SHT31;68029;51.978;5.646;2023-04-08T00:46:15;11.2;72.4
78694;SHT31;68029;51.978;5.646;2023-04-08T00:48:45;11.2;72.5
78694;SHT31;68029;51.978;5.646;2023-04-08T00:51:14;11.2;72.4
78694;SHT31;68029;51.978;5.646;2023-04-08T00:53:45;11.1;72.5
78694;SHT31;68029;51.978;5.646;2023-04-08T00:56:15;11.1;72.7
78694;SHT31;68029;51.978;5.646;2023-04-08T00:58:48;11.1;73.0
78694;SHT31;68029;51.978;5.646;2023-04-08T01:01:27;11.0;72.5
78694;SHT31;68029;51.978;5.646;2023-04-08T01:04:05;11.0;72.8
78694;SHT31;68029;51.978;5.646;2023-04-08T01:06:40;11.0;73.0
78694;SHT31;68029;51.978;5.646;2023-04-08T01:09:13;10.9;72.9
78694;SHT31;68029;51.978;5.646;2023-04-08T01:11:49;10.9;73.3
78694;SHT31;68029;51.978;5.646;2023-04-08T01:14:23;10.9;72.9
78694;SHT31;68029;51.978;5.646;2023-04-08T01:16:57;10.8;72.7
78694;SHT31;68029;51.978;5.646;2023-04-08T01:19:30;10.8;72.3
78694;SHT31;68029;51.978;5.646;2023-04-08T01:22:10;10.7;72.3
78694;SHT31;68029;51.978;5.646;2023-04-08T01:24:43;10.7;72.6
78694;SHT31;68029;51.978;5.646;2023-04-08T01:27:15;10.7;73.2
78694;SHT31;68029;51.978;5.646;2023-04-08T01:29:48;10.6;73.1
78694;SHT31;68029;51.978;5.646;2023-04-08T01:32:21;10.6;73.6
78694;SHT31;68029;51.978;5.646;2023-04-08T01:34:54;10.6;73.3
78694;SHT31;68029;51.978;5.646;2023-04-08T01:37:27;10.6;73.2
78694;SHT31;68029;51.978;5.646;2023-04-08T01:39:59;10.6;72.8
78694;SHT31;68029;51.978;5.646;2023-04-08T01:42:32;10.6;73.1
78694;SHT31;68029;51.978;5.646;2023-04-08T01:45:05;10.5;73.2
78694;SHT31;68029;51.978;5.646;2023-04-08T01:47:36;10.5;73.2
78694;SHT31;68029;51.978;5.646;2023-04-08T01:50:08;10.5;72.8
78694;SHT31;68029;51.978;5.646;2023-04-08T01:52:39;10.5;72.3
78694;SHT31;68029;51.978;5.646;2023-04-08T01:55:10;10.5;73.1
78694;SHT31;68029;51.978;5.646;2023-04-08T01:57:46;10.4;72.6
78694;SHT31;68029;51.978;5.646;2023-04-08T02:00:20;10.4;72.6
78694;SHT31;68029;51.978;5.646;2023-04-08T02:02:52;10.4;72.8
78694;SHT31;68029;51.978;5.646;2023-04-08T02:05:22;10.4;72.3
78694;SHT31;68029;51.978;5.646;2023-04-08T02:07:53;10.3;72.4
78694;SHT31;68029;51.978;5.646;2023-04-08T02:10:22;10.3;72.6
78694;SHT31;68029;51.978;5.646;2023-04-08T02:12:52;10.3;72.6
78694;SHT31;68029;51.978;5.646;2023-04-08T02:15:24;10.3;72.5
78694;SHT31;68029;51.978;5.646;2023-04-08T02:18:02;10.2;72.7
78694;SHT31;68029;51.978;5.646;2023-04-08T02:20:38;10.2;72.5
78694;SHT31;68029;51.978;5.646;2023-04-08T02:23:18;10.2;72.7
78694;SHT31;68029;51.978;5.646;2023-04-08T02:25:49;10.2;72.3
78694;SHT31;68029;51.978;5.646;2023-04-08T02:28:22;10.2;72.5
78694;SHT31;68029;51.978;5.646;2023-04-08T02:30:54;10.1;73.1
78694;SHT31;68029;51.978;5.646;2023-04-08T02:33:27;10.1;72.8
78694;SHT31;68029;51.978;5.646;2023-04-08T02:35:58;10.1;72.5
78694;SHT31;68029;51.978;5.646;2023-04-08T02:38:28;10.1;72.8
78694;SHT31;68029;51.978;5.646;2023-04-08T02:40:58;10.1;72.2
78694;SHT31;68029;51.978;5.646;2023-04-08T02:43:28;10.0;72.2
78694;SHT31;68029;51.978;5.646;2023-04-08T02:45:59;10.0;71.5
78694;SHT31;68029;51.978;5.646;2023-04-08T02:48:30;10.0;71.9
78694;SHT31;68029;51.978;5.646;2023-04-08T02:51:00;10.0;72.0
78694;SHT31;68029;51.978;5.646;2023-04-08T02:53:29;10.0;72.1
78694;SHT31;68029;51.978;5.646;2023-04-08T02:55:59;9.9;72.1
78694;SHT31;68029;51.978;5.646;2023-04-08T02:58:28;9.9;71.8
78694;SHT31;68029;51.978;5.646;2023-04-08T03:01:00;9.9;72.2
78694;SHT31;68029;51.978;5.646;2023-04-08T03:03:29;9.8;72.3
78694;SHT31;68029;51.978;5.646;2023-04-08T03:05:59;9.8;72.3
78694;SHT31;68029;51.978;5.646;2023-04-08T03:08:28;9.8;71.8
78694;SHT31;68029;51.978;5.646;2023-04-08T03:10:58;9.8;71.9
78694;SHT31;68029;51.978;5.646;2023-04-08T03:13:27;9.7;72.3
78694;SHT31;68029;51.978;5.646;2023-04-08T03:15:58;9.7;72.1
78694;SHT31;68029;51.978;5.646;2023-04-08T03:18:27;9.7;71.8
78694;SHT31;68029;51.978;5.646;2023-04-08T03:20:57;9.7;72.0
78694;SHT31;68029;51.978;5.646;2023-04-08T03:23:27;9.7;71.7
78694;SHT31;68029;51.978;5.646;2023-04-08T03:25:57;9.6;71.8
78694;SHT31;68029;51.978;5.646;2023-04-08T03:28:28;9.6;71.6
78694;SHT31;68029;51.978;5.646;2023-04-08T03:30:57;9.6;71.2
78694;SHT31;68029;51.978;5.646;2023-04-08T03:33:27;9.6;71.8
78694;SHT31;68029;51.978;5.646;2023-04-08T03:35:57;9.5;71.7
78694;SHT31;68029;51.978;5.646;2023-04-08T03:38:26;9.5;72.0
78694;SHT31;68029;51.978;5.646;2023-04-08T03:40:56;9.5;71.0
78694;SHT31;68029;51.978;5.646;2023-04-08T03:43:25;9.5;70.5
78694;SHT31;68029;51.978;5.646;2023-04-08T03:45:55;9.4;71.2
78694;SHT31;68029;51.978;5.646;2023-04-08T03:48:25;9.4;70.2
78694;SHT31;68029;51.978;5.646;2023-04-08T03:50:54;9.4;70.4
78694;SHT31;68029;51.978;5.646;2023-04-08T03:53:24;9.4;69.9
78694;SHT31;68029;51.978;5.646;2023-04-08T03:55:56;9.3;69.5
78694;SHT31;68029;51.978;5.646;2023-04-08T03:58:25;9.2;69.5
78694;SHT31;68029;51.978;5.646;2023-04-08T04:00:55;9.2;70.2
78694;SHT31;68029;51.978;5.646;2023-04-08T04:03:26;9.1;70.2
78694;SHT31;68029;51.978;5.646;2023-04-08T04:05:55;9.0;70.5
78694;SHT31;68029;51.978;5.646;2023-04-08T04:08:25;8.9;70.5
78694;SHT31;68029;51.978;5.646;2023-04-08T04:10:55;8.9;70.8
78694;SHT31;68029;51.978;5.646;2023-04-08T04:13:24;8.8;70.8
78694;SHT31;68029;51.978;5.646;2023-04-08T04:15:54;8.7;70.6
78694;SHT31;68029;51.978;5.646;2023-04-08T04:18:23;8.7;70.5
78694;SHT31;68029;51.978;5.646;2023-04-08T04:20:53;8.6;71.1
78694;SHT31;68029;51.978;5.646;2023-04-08T04:23:22;8.6;71.1
78694;SHT31;68029;51.978;5.646;2023-04-08T04:25:52;8.5;70.8
78694;SHT31;68029;51.978;5.646;2023-04-08T04:28:22;8.5;70.9
78694;SHT31;68029;51.978;5.646;2023-04-08T04:30:53;8.4;71.2
78694;SHT31;68029;51.978;5.646;2023-04-08T04:33:23;8.4;71.8
78694;SHT31;68029;51.978;5.646;2023-04-08T04:35:52;8.4;71.4
78694;SHT31;68029;51.978;5.646;2023-04-08T04:38:22;8.4;71.3
78694;SHT31;68029;51.978;5.646;2023-04-08T04:40:52;8.4;71.2
78694;SHT31;68029;51.978;5.646;2023-04-08T04:43:23;8.4;71.3
78694;SHT31;68029;51.978;5.646;2023-04-08T04:45:52;8.4;71.7
78694;SHT31;68029;51.978;5.646;2023-04-08T04:48:23;8.3;71.0
78694;SHT31;68029;51.978;5.646;2023-04-08T04:50:56;8.3;71.0
78694;SHT31;68029;51.978;5.646;2023-04-08T04:53:27;8.3;71.1
78694;SHT31;68029;51.978;5.646;2023-04-08T04:55:58;8.3;71.0
78694;SHT31;68029;51.978;5.646;2023-04-08T04:58:28;8.3;70.8
78694;SHT31;68029;51.978;5.646;2023-04-08T05:00:58;8.3;71.3
78694;SHT31;68029;51.978;5.646;2023-04-08T05:03:28;8.3;71.1
78694;SHT31;68029;51.978;5.646;2023-04-08T05:05:57;8.3;70.7
78694;SHT31;68029;51.978;5.646;2023-04-08T05:08:27;8.3;70.8
78694;SHT31;68029;51.978;5.646;2023-04-08T05:10:57;8.3;70.7
78694;SHT31;68029;51.978;5.646;2023-04-08T05:13:29;8.3;70.8
78694;SHT31;68029;51.978;5.646;2023-04-08T05:16:01;8.3;70.7
78694;SHT31;68029;51.978;5.646;2023-04-08T05:18:30;8.2;71.3
78694;SHT31;68029;51.978;5.646;2023-04-08T05:21:00;8.2;71.4
78694;SHT31;68029;51.978;5.646;2023-04-08T05:23:30;8.2;71.7
78694;SHT31;68029;51.978;5.646;2023-04-08T05:25:59;8.2;71.3
78694;SHT31;68029;51.978;5.646;2023-04-08T05:28:29;8.2;70.9
78694;SHT31;68029;51.978;5.646;2023-04-08T05:30:58;8.2;70.8
78694;SHT31;68029;51.978;5.646;2023-04-08T05:33:28;8.2;71.4
78694;SHT31;68029;51.978;5.646;2023-04-08T05:35:57;8.2;70.3
78694;SHT31;68029;51.978;5.646;2023-04-08T05:38:27;8.2;70.1
78694;SHT31;68029;51.978;5.646;2023-04-08T05:40:56;8.2;70.2
78694;SHT31;68029;51.978;5.646;2023-04-08T05:43:26;8.2;71.3
78694;SHT31;68029;51.978;5.646;2023-04-08T05:45:58;8.2;70.9
78694;SHT31;68029;51.978;5.646;2023-04-08T05:48:27;8.2;69.9
78694;SHT31;68029;51.978;5.646;2023-04-08T05:50:57;8.2;70.3
78694;SHT31;68029;51.978;5.646;2023-04-08T05:53:27;8.1;71.2
78694;SHT31;68029;51.978;5.646;2023-04-08T05:55:57;8.1;71.0
78694;SHT31;68029;51.978;5.646;2023-04-08T05:58:27;8.1;71.2
78694;SHT31;68029;51.978;5.646;2023-04-08T06:00:57;8.1;71.6
78694;SHT31;68029;51.978;5.646;2023-04-08T06:03:27;8.1;70.8
78694;SHT31;68029;51.978;5.646;2023-04-08T06:05:58;8.1;71.3
78694;SHT31;68029;51.978;5.646;2023-04-08T06:08:28;8.1;69.8
78694;SHT31;68029;51.978;5.646;2023-04-08T06:10:58;8.1;69.9
78694;SHT31;68029;51.978;5.646;2023-04-08T06:13:30;8.1;70.5
78694;SHT31;68029;51.978;5.646;2023-04-08T06:16:14;8.1;70.4
78694;SHT31;68029;51.978;5.646;2023-04-08T06:18:44;8.1;70.6
78694;SHT31;68029;51.978;5.646;2023-04-08T06:21:14;8.1;70.8
78694;SHT31;68029;51.978;5.646;2023-04-08T06:23:43;8.1;70.8
78694;SHT31;68029;51.978;5.646;2023-04-08T06:26:13;8.2;71.2
78694;SHT31;68029;51.978;5.646;2023-04-08T06:28:42;8.2;70.3
78694;SHT31;68029;51.978;5.646;2023-04-08T06:31:12;8.2;69.9
78694;SHT31;68029;51.978;5.646;2023-04-08T06:33:42;8.2;70.1
78694;SHT31;68029;51.978;5.646;2023-04-08T06:36:11;8.2;70.2
78694;SHT31;68029;51.978;5.646;2023-04-08T06:38:43;8.2;70.6
78694;SHT31;68029;51.978;5.646;2023-04-08T06:41:13;8.3;70.6
78694;SHT31;68029;51.978;5.646;2023-04-08T06:43:42;8.3;70.5
78694;SHT31;68029;51.978;5.646;2023-04-08T06:46:12;8.4;71.3
78694;SHT31;68029;51.978;5.646;2023-04-08T06:48:41;8.4;70.8
78694;SHT31;68029;51.978;5.646;2023-04-08T06:51:11;8.5;70.6
78694;SHT31;68029;51.978;5.646;2023-04-08T06:53:41;8.6;70.0
78694;SHT31;68029;51.978;5.646;2023-04-08T06:56:10;8.7;71.2
78694;SHT31;68029;51.978;5.646;2023-04-08T06:58:42;8.8;69.8
78694;SHT31;68029;51.978;5.646;2023-04-08T07:01:12;8.9;70.5
78694;SHT31;68029;51.978;5.646;2023-04-08T07:03:42;9.1;68.7
78694;SHT31;68029;51.978;5.646;2023-04-08T07:06:12;9.3;68.3
78694;SHT31;68029;51.978;5.646;2023-04-08T07:08:41;9.4;68.2
78694;SHT31;68029;51.978;5.646;2023-04-08T07:11:11;9.5;69.0
78694;SHT31;68029;51.978;5.646;2023-04-08T07:13:41;9.7;67.9
78694;SHT31;68029;51.978;5.646;2023-04-08T07:16:10;9.9;68.6
78694;SHT31;68029;51.978;5.646;2023-04-08T07:18:41;10.1;67.3
78694;SHT31;68029;51.978;5.646;2023-04-08T07:21:10;10.4;65.5
78694;SHT31;68029;51.978;5.646;2023-04-08T07:23:40;10.6;66.4
78694;SHT31;68029;51.978;5.646;2023-04-08T07:26:11;10.9;64.3
78694;SHT31;68029;51.978;5.646;2023-04-08T07:28:41;11.1;61.8
78694;SHT31;68029;51.978;5.646;2023-04-08T07:31:13;11.3;62.9
78694;SHT31;68029;51.978;5.646;2023-04-08T07:33:45;11.5;60.6
78694;SHT31;68029;51.978;5.646;2023-04-08T07:36:15;11.7;60.3
78694;SHT31;68029;51.978;5.646;2023-04-08T07:38:46;11.9;59.2
78694;SHT31;68029;51.978;5.646;2023-04-08T07:41:16;12.1;60.1
78694;SHT31;68029;51.978;5.646;2023-04-08T07:43:45;12.3;59.1
78694;SHT31;68029;51.978;5.646;2023-04-08T07:46:15;12.5;60.2
78694;SHT31;68029;51.978;5.646;2023-04-08T07:48:46;12.7;59.7
78694;SHT31;68029;51.978;5.646;2023-04-08T07:51:16;12.9;58.7
78694;SHT31;68029;51.978;5.646;2023-04-08T07:53:45;13.1;56.0
78694;SHT31;68029;51.978;5.646;2023-04-08T07:56:15;13.2;56.3
78694;SHT31;68029;51.978;5.646;2023-04-08T07:58:46;13.3;55.4
78694;SHT31;68029;51.978;5.646;2023-04-08T08:01:18;13.5;54.9
78694;SHT31;68029;51.978;5.646;2023-04-08T08:03:50;13.6;54.8
78694;SHT31;68029;51.978;5.646;2023-04-08T08:06:19;13.7;53.1
78694;SHT31;68029;51.978;5.646;2023-04-08T08:08:51;13.8;53.7
78694;SHT31;68029;51.978;5.646;2023-04-08T08:11:20;13.9;54.0
78694;SHT31;68029;51.978;5.646;2023-04-08T08:13:52;14.0;55.7
78694;SHT31;68029;51.978;5.646;2023-04-08T08:16:22;14.1;55.4
78694;SHT31;68029;51.978;5.646;2023-04-08T08:18:53;14.3;53.8
78694;SHT31;68029;51.978;5.646;2023-04-08T08:21:24;14.4;54.5
78694;SHT31;68029;51.978;5.646;2023-04-08T08:23:54;14.6;54.2
78694;SHT31;68029;51.978;5.646;2023-04-08T08:26:26;14.7;54.1
78694;SHT31;68029;51.978;5.646;2023-04-08T08:28:55;14.9;53.7
78694;SHT31;68029;51.978;5.646;2023-04-08T08:31:25;15.2;52.9
78694;SHT31;68029;51.978;5.646;2023-04-08T08:33:54;15.4;52.4
78694;SHT31;68029;51.978;5.646;2023-04-08T08:36:24;15.6;49.0
78694;SHT31;68029;51.978;5.646;2023-04-08T08:38:53;15.7;49.5
78694;SHT31;68029;51.978;5.646;2023-04-08T08:41:26;15.8;49.0
78694;SHT31;68029;51.978;5.646;2023-04-08T08:43:56;15.9;47.7
78694;SHT31;68029;51.978;5.646;2023-04-08T08:46:28;16.0;48.4
78694;SHT31;68029;51.978;5.646;2023-04-08T08:48:58;16.1;48.8
78694;SHT31;68029;51.978;5.646;2023-04-08T08:51:31;16.3;48.0
78694;SHT31;68029;51.978;5.646;2023-04-08T08:54:03;16.5;47.9
78694;SHT31;68029;51.978;5.646;2023-04-08T08:56:33;16.6;48.4
78694;SHT31;68029;51.978;5.646;2023-04-08T08:59:03;16.8;48.3
78694;SHT31;68029;51.978;5.646;2023-04-08T09:01:37;17.0;49.4
78694;SHT31;68029;51.978;5.646;2023-04-08T09:04:12;17.1;47.0
78694;SHT31;68029;51.978;5.646;2023-04-08T09:06:44;17.3;48.2
78694;SHT31;68029;51.978;5.646;2023-04-08T09:09:14;17.4;48.5
78694;SHT31;68029;51.978;5.646;2023-04-08T09:11:45;17.6;46.3
78694;SHT31;68029;51.978;5.646;2023-04-08T09:14:20;17.8;44.8
78694;SHT31;68029;51.978;5.646;2023-04-08T09:16:51;17.9;44.3
78694;SHT31;68029;51.978;5.646;2023-04-08T09:19:21;18.0;46.4
78694;SHT31;68029;51.978;5.646;2023-04-08T09:22:06;18.1;45.9
78694;SHT31;68029;51.978;5.646;2023-04-08T09:24:37;18.3;44.7
78694;SHT31;68029;51.978;5.646;2023-04-08T09:27:08;18.4;45.8
78694;SHT31;68029;51.978;5.646;2023-04-08T09:29:38;18.5;46.6
78694;SHT31;68029;51.978;5.646;2023-04-08T09:32:08;18.7;44.9
78694;SHT31;68029;51.978;5.646;2023-04-08T09:34:37;18.9;44.5
78694;SHT31;68029;51.978;5.646;2023-04-08T09:37:07;19.1;43.4
78694;SHT31;68029;51.978;5.646;2023-04-08T09:39:37;19.3;45.1
78694;SHT31;68029;51.978;5.646;2023-04-08T09:42:11;19.5;44.0
78694;SHT31;68029;51.978;5.646;2023-04-08T09:44:45;19.7;44.0
78694;SHT31;68029;51.978;5.646;2023-04-08T09:47:18;19.9;40.9
78694;SHT31;68029;51.978;5.646;2023-04-08T09:50:00;20.0;43.6
78694;SHT31;68029;51.978;5.646;2023-04-08T09:52:35;20.2;39.1
78694;SHT31;68029;51.978;5.646;2023-04-08T09:55:08;20.3;39.9
78694;SHT31;68029;51.978;5.646;2023-04-08T09:57:45;20.5;38.5
78694;SHT31;68029;51.978;5.646;2023-04-08T10:00:17;20.5;37.3
78694;SHT31;68029;51.978;5.646;2023-04-08T10:02:55;20.6;38.6
78694;SHT31;68029;51.978;5.646;2023-04-08T10:05:30;20.6;39.7
78694;SHT31;68029;51.978;5.646;2023-04-08T10:08:00;20.7;37.2
78694;SHT31;68029;51.978;5.646;2023-04-08T10:10:30;20.8;40.2
78694;SHT31;68029;51.978;5.646;2023-04-08T10:13:01;20.9;37.1
78694;SHT31;68029;51.978;5.646;2023-04-08T10:15:32;21.0;37.5
78694;SHT31;68029;51.978;5.646;2023-04-08T10:18:30;21.1;36.5
78694;SHT31;68029;51.978;5.646;2023-04-08T10:21:06;21.2;36.3
78694;SHT31;68029;51.978;5.646;2023-04-08T10:23:57;21.3;36.0
78694;SHT31;68029;51.978;5.646;2023-04-08T10:26:34;21.5;34.0
78694;SHT31;68029;51.978;5.646;2023-04-08T10:29:31;21.6;35.6
78694;SHT31;68029;51.978;5.646;2023-04-08T10:32:01;21.7;34.7
78694;SHT31;68029;51.978;5.646;2023-04-08T10:34:31;21.8;34.6
78694;SHT31;68029;51.978;5.646;2023-04-08T10:37:01;21.9;33.7
78694;SHT31;68029;51.978;5.646;2023-04-08T10:39:31;21.9;35.0
78694;SHT31;68029;51.978;5.646;2023-04-08T10:42:01;22.0;35.2
78694;SHT31;68029;51.978;5.646;2023-04-08T10:44:31;22.1;33.3
78694;SHT31;68029;51.978;5.646;2023-04-08T10:47:01;22.2;34.7
78694;SHT31;68029;51.978;5.646;2023-04-08T10:49:34;22.3;33.9
78694;SHT31;68029;51.978;5.646;2023-04-08T10:52:08;22.4;36.0
78694;SHT31;68029;51.978;5.646;2023-04-08T10:54:47;22.6;32.2
78694;SHT31;68029;51.978;5.646;2023-04-08T10:57:24;22.6;33.5
78694;SHT31;68029;51.978;5.646;2023-04-08T10:59:54;22.7;32.0
78694;SHT31;68029;51.978;5.646;2023-04-08T11:02:33;22.7;34.5
78694;SHT31;68029;51.978;5.646;2023-04-08T11:05:02;22.8;34.5
78694;SHT31;68029;51.978;5.646;2023-04-08T11:07:32;23.0;32.7
78694;SHT31;68029;51.978;5.646;2023-04-08T11:10:08;23.1;31.1
78694;SHT31;68029;51.978;5.646;2023-04-08T11:12:41;23.2;28.4
78694;SHT31;68029;51.978;5.646;2023-04-08T11:15:14;23.3;29.3
78694;SHT31;68029;51.978;5.646;2023-04-08T11:17:45;23.3;29.9
78694;SHT31;68029;51.978;5.646;2023-04-08T11:20:16;23.3;29.2
78694;SHT31;68029;51.978;5.646;2023-04-08T11:22:48;23.2;27.5
78694;SHT31;68029;51.978;5.646;2023-04-08T11:25:18;23.0;28.5
78694;SHT31;68029;51.978;5.646;2023-04-08T11:27:48;22.7;29.1
78694;SHT31;68029;51.978;5.646;2023-04-08T11:30:18;22.5;31.0
78694;SHT31;68029;51.978;5.646;2023-04-08T11:32:49;22.3;30.3
78694;SHT31;68029;51.978;5.646;2023-04-08T11:35:22;22.2;31.0
78694;SHT31;68029;51.978;5.646;2023-04-08T11:37:51;22.0;30.2
78694;SHT31;68029;51.978;5.646;2023-04-08T11:40:22;22.0;30.3
78694;SHT31;68029;51.978;5.646;2023-04-08T11:42:53;21.9;30.7
78694;SHT31;68029;51.978;5.646;2023-04-08T11:45:22;21.9;30.6
78694;SHT31;68029;51.978;5.646;2023-04-08T11:47:52;22.0;31.3
78694;SHT31;68029;51.978;5.646;2023-04-08T11:50:25;22.3;30.1
78694;SHT31;68029;51.978;5.646;2023-04-08T11:52:56;22.5;29.4
78694;SHT31;68029;51.978;5.646;2023-04-08T11:55:28;22.6;29.4
78694;SHT31;68029;51.978;5.646;2023-04-08T11:58:02;22.7;30.3
78694;SHT31;68029;51.978;5.646;2023-04-08T12:00:34;22.8;28.8
78694;SHT31;68029;51.978;5.646;2023-04-08T12:03:05;22.8;29.3
78694;SHT31;68029;51.978;5.646;2023-04-08T12:05:35;22.9;28.6
78694;SHT31;68029;51.978;5.646;2023-04-08T12:08:05;22.9;28.0
78694;SHT31;68029;51.978;5.646;2023-04-08T12:10:34;22.9;29.0
78694;SHT31;68029;51.978;5.646;2023-04-08T12:13:04;22.9;30.6
78694;SHT31;68029;51.978;5.646;2023-04-08T12:15:35;22.9;29.4
78694;SHT31;68029;51.978;5.646;2023-04-08T12:18:04;22.9;28.5
78694;SHT31;68029;51.978;5.646;2023-04-08T12:20:36;22.9;28.5
78694;SHT31;68029;51.978;5.646;2023-04-08T12:23:06;22.8;29.2
78694;SHT31;68029;51.978;5.646;2023-04-08T12:25:35;22.7;28.6
78694;SHT31;68029;51.978;5.646;2023-04-08T12:28:04;22.5;28.3
78694;SHT31;68029;51.978;5.646;2023-04-08T12:30:36;22.4;28.8
78694;SHT31;68029;51.978;5.646;2023-04-08T12:33:06;22.2;28.7
78694;SHT31;68029;51.978;5.646;2023-04-08T12:35:35;22.1;29.9
78694;SHT31;68029;51.978;5.646;2023-04-08T12:38:05;21.9;29.8
78694;SHT31;68029;51.978;5.646;2023-04-08T12:40:34;21.7;30.7
78694;SHT31;68029;51.978;5.646;2023-04-08T12:43:04;21.5;30.6
78694;SHT31;68029;51.978;5.646;2023-04-08T12:45:33;21.4;32.0
78694;SHT31;68029;51.978;5.646;2023-04-08T12:48:03;21.4;30.5
78694;SHT31;68029;51.978;5.646;2023-04-08T12:50:33;21.3;32.0
78694;SHT31;68029;51.978;5.646;2023-04-08T12:53:03;21.3;33.2
78694;SHT31;68029;51.978;5.646;2023-04-08T12:55:33;21.3;32.8
78694;SHT31;68029;51.978;5.646;2023-04-08T12:58:02;21.4;32.6
78694;SHT31;68029;51.978;5.646;2023-04-08T13:00:32;21.5;33.1
78694;SHT31;68029;51.978;5.646;2023-04-08T13:03:04;21.8;31.8
78694;SHT31;68029;51.978;5.646;2023-04-08T13:05:34;22.1;31.7
78694;SHT31;68029;51.978;5.646;2023-04-08T13:08:03;22.4;31.9
78694;SHT31;68029;51.978;5.646;2023-04-08T13:10:33;22.8;31.1
78694;SHT31;68029;51.978;5.646;2023-04-08T13:13:02;23.2;30.3
78694;SHT31;68029;51.978;5.646;2023-04-08T13:15:33;23.5;30.7
78694;SHT31;68029;51.978;5.646;2023-04-08T13:18:03;23.7;28.8
78694;SHT31;68029;51.978;5.646;2023-04-08T13:20:34;23.8;28.7
78694;SHT31;68029;51.978;5.646;2023-04-08T13:23:03;23.9;28.7
78694;SHT31;68029;51.978;5.646;2023-04-08T13:25:33;23.9;28.2
78694;SHT31;68029;51.978;5.646;2023-04-08T13:28:03;23.8;29.1
78694;SHT31;68029;51.978;5.646;2023-04-08T13:30:36;23.7;28.4
78694;SHT31;68029;51.978;5.646;2023-04-08T13:33:07;23.5;28.9
78694;SHT31;68029;51.978;5.646;2023-04-08T13:35:37;23.3;28.6
78694;SHT31;68029;51.978;5.646;2023-04-08T13:38:07;23.0;29.4
78694;SHT31;68029;51.978;5.646;2023-04-08T13:40:39;22.8;29.4
78694;SHT31;68029;51.978;5.646;2023-04-08T13:43:10;22.6;30.8
78694;SHT31;68029;51.978;5.646;2023-04-08T13:45:41;22.4;30.3
78694;SHT31;68029;51.978;5.646;2023-04-08T13:48:11;22.2;30.5
78694;SHT31;68029;51.978;5.646;2023-04-08T13:50:40;22.0;30.9
78694;SHT31;68029;51.978;5.646;2023-04-08T13:53:10;21.8;31.9
78694;SHT31;68029;51.978;5.646;2023-04-08T13:55:39;21.7;31.6
78694;SHT31;68029;51.978;5.646;2023-04-08T13:58:09;21.6;32.4
78694;SHT31;68029;51.978;5.646;2023-04-08T14:00:38;21.5;32.8
78694;SHT31;68029;51.978;5.646;2023-04-08T14:03:08;21.5;32.2
78694;SHT31;68029;51.978;5.646;2023-04-08T14:05:38;21.4;32.4
78694;SHT31;68029;51.978;5.646;2023-04-08T14:08:07;21.4;32.4
78694;SHT31;68029;51.978;5.646;2023-04-08T14:10:37;21.4;32.7
78694;SHT31;68029;51.978;5.646;2023-04-08T14:13:08;21.3;33.2
78694;SHT31;68029;51.978;5.646;2023-04-08T14:15:37;21.3;32.7
78694;SHT31;68029;51.978;5.646;2023-04-08T14:18:07;21.3;32.5
78694;SHT31;68029;51.978;5.646;2023-04-08T14:20:39;21.2;32.9
78694;SHT31;68029;51.978;5.646;2023-04-08T14:23:09;21.2;32.9
78694;SHT31;68029;51.978;5.646;2023-04-08T14:25:39;21.2;32.7
78694;SHT31;68029;51.978;5.646;2023-04-08T14:28:09;21.1;33.8
78694;SHT31;68029;51.978;5.646;2023-04-08T14:30:38;21.2;32.9
78694;SHT31;68029;51.978;5.646;2023-04-08T14:33:09;21.2;32.8
78694;SHT31;68029;51.978;5.646;2023-04-08T14:35:41;21.3;32.1
78694;SHT31;68029;51.978;5.646;2023-04-08T14:38:12;21.2;31.9
78694;SHT31;68029;51.978;5.646;2023-04-08T14:40:42;21.2;32.2
78694;SHT31;68029;51.978;5.646;2023-04-08T14:43:12;21.2;32.4
78694;SHT31;68029;51.978;5.646;2023-04-08T14:45:42;21.1;33.5
78694;SHT31;68029;51.978;5.646;2023-04-08T14:48:12;21.1;32.9
78694;SHT31;68029;51.978;5.646;2023-04-08T14:50:42;21.1;33.0
78694;SHT31;68029;51.978;5.646;2023-04-08T14:53:11;21.1;32.9
78694;SHT31;68029;51.978;5.646;2023-04-08T14:55:41;21.1;32.4
78694;SHT31;68029;51.978;5.646;2023-04-08T14:58:10;21.1;32.9
78694;SHT31;68029;51.978;5.646;2023-04-08T15:00:40;21.1;33.7
78694;SHT31;68029;51.978;5.646;2023-04-08T15:03:11;21.0;33.4
78694;SHT31;68029;51.978;5.646;2023-04-08T15:05:42;21.0;33.7
78694;SHT31;68029;51.978;5.646;2023-04-08T15:08:14;20.9;33.4
78694;SHT31;68029;51.978;5.646;2023-04-08T15:10:43;20.9;33.5
78694;SHT31;68029;51.978;5.646;2023-04-08T15:13:14;20.9;33.6
78694;SHT31;68029;51.978;5.646;2023-04-08T15:15:44;20.9;33.7
78694;SHT31;68029;51.978;5.646;2023-04-08T15:18:13;20.9;33.5
78694;SHT31;68029;51.978;5.646;2023-04-08T15:20:43;20.8;33.3
78694;SHT31;68029;51.978;5.646;2023-04-08T15:23:13;20.8;33.7
78694;SHT31;68029;51.978;5.646;2023-04-08T15:25:43;20.7;33.2
78694;SHT31;68029;51.978;5.646;2023-04-08T15:28:13;20.6;34.4
78694;SHT31;68029;51.978;5.646;2023-04-08T15:30:43;20.5;34.2
78694;SHT31;68029;51.978;5.646;2023-04-08T15:33:12;20.4;34.0
78694;SHT31;68029;51.978;5.646;2023-04-08T15:35:46;20.3;33.9
78694;SHT31;68029;51.978;5.646;2023-04-08T15:38:16;20.2;34.2
78694;SHT31;68029;51.978;5.646;2023-04-08T15:40:45;20.1;33.3
78694;SHT31;68029;51.978;5.646;2023-04-08T15:43:15;20.0;34.5
78694;SHT31;68029;51.978;5.646;2023-04-08T15:45:45;20.0;34.4
78694;SHT31;68029;51.978;5.646;2023-04-08T15:48:15;19.9;35.1
78694;SHT31;68029;51.978;5.646;2023-04-08T15:50:45;19.8;35.6
78694;SHT31;68029;51.978;5.646;2023-04-08T15:53:17;19.8;35.7
78694;SHT31;68029;51.978;5.646;2023-04-08T15:55:47;19.7;36.0
78694;SHT31;68029;51.978;5.646;2023-04-08T15:58:16;19.6;36.2
78694;SHT31;68029;51.978;5.646;2023-04-08T16:00:46;19.5;36.5
78694;SHT31;68029;51.978;5.646;2023-04-08T16:03:15;19.5;37.3
78694;SHT31;68029;51.978;5.646;2023-04-08T16:05:45;19.4;37.0
78694;SHT31;68029;51.978;5.646;2023-04-08T16:08:14;19.3;37.2
78694;SHT31;68029;51.978;5.646;2023-04-08T16:10:44;19.3;37.6
78694;SHT31;68029;51.978;5.646;2023-04-08T16:13:14;19.2;37.9
78694;SHT31;68029;51.978;5.646;2023-04-08T16:15:44;19.1;38.7
78694;SHT31;68029;51.978;5.646;2023-04-08T16:18:13;19.0;40.0
78694;SHT31;68029;51.978;5.646;2023-04-08T16:20:42;19.0;40.9
78694;SHT31;68029;51.978;5.646;2023-04-08T16:23:13;18.9;40.6
78694;SHT31;68029;51.978;5.646;2023-04-08T16:25:44;18.8;40.8
78694;SHT31;68029;51.978;5.646;2023-04-08T16:28:13;18.8;41.3
78694;SHT31;68029;51.978;5.646;2023-04-08T16:30:44;18.7;41.5